createdAt,value
2019-01-27T00:00:48.074Z,74.94
2019-01-27T00:03:18.186Z,74.37
2019-01-27T00:05:48.294Z,75.08
2019-01-27T00:08:18.323Z,75.39
2019-01-27T00:10:48.353Z,74.63
2019-01-27T00:13:18.312Z,74.63
2019-01-27T00:15:48.530Z,74.88
2019-01-27T00:18:18.746Z,74.42
2019-01-27T00:20:48.768Z,74.34
2019-01-27T00:23:18.685Z,74.94
2019-01-27T00:25:48.657Z,74.49
2019-01-27T00:28:18.680Z,74.31
2019-01-27T00:30:48.585Z,74.29
2019-01-27T00:33:18.747Z,74.13
2019-01-27T00:35:48.745Z,73.93
2019-01-27T00:38:18.948Z,73.91
2019-01-27T00:40:48.838Z,74.15
2019-01-27T00:43:18.766Z,74.36
2019-01-27T00:45:49.135Z,73.83
2019-01-27T00:48:19.289Z,73.77
2019-01-27T00:50:49.302Z,73.89
2019-01-27T00:53:19.211Z,76.66
2019-01-27T00:55:49.427Z,75.52
2019-01-27T00:58:19.442Z,74.80
2019-01-27T01:00:49.422Z,74.12
2019-01-27T01:03:19.452Z,80.09
2019-01-27T01:05:49.600Z,79.27
2019-01-27T01:08:19.965Z,75.00
2019-01-27T01:10:49.833Z,74.96
2019-01-27T01:13:20.010Z,75.80
2019-01-27T01:15:50.023Z,74.66
2019-01-27T01:18:20.422Z,73.97
2019-01-27T01:20:50.414Z,73.06
2019-01-27T01:23:20.742Z,73.54
2019-01-27T01:25:50.994Z,73.27
2019-01-27T01:28:21.045Z,73.57
2019-01-27T01:30:51.190Z,73.93
2019-01-27T01:33:21.119Z,73.77
2019-01-27T01:35:51.170Z,74.05
2019-01-27T01:38:21.812Z,73.51
2019-01-27T01:40:52.041Z,79.70
2019-01-27T01:43:21.940Z,75.51
2019-01-27T01:45:52.616Z,79.43
2019-01-27T01:48:22.652Z,76.36
2019-01-27T01:50:52.787Z,73.67
2019-01-27T01:53:22.747Z,73.37
2019-01-27T01:55:52.726Z,73.46
2019-01-27T01:58:22.685Z,74.08
2019-01-27T02:00:52.624Z,73.20
2019-01-27T02:03:22.913Z,73.65
2019-01-27T02:05:52.844Z,73.46
2019-01-27T02:08:22.868Z,73.59
2019-01-27T02:10:52.834Z,72.80
2019-01-27T02:13:22.745Z,72.62
2019-01-27T02:16:10.611Z,72.40
2019-01-27T02:18:41.544Z,72.52
2019-01-27T02:21:11.591Z,72.52
2019-01-27T02:23:41.654Z,72.97
2019-01-27T02:26:11.983Z,72.65
2019-01-27T02:28:42.360Z,72.07
2019-01-27T02:31:12.325Z,72.93
2019-01-27T02:33:42.268Z,72.36
2019-01-27T02:36:12.178Z,72.54
2019-01-27T02:38:42.210Z,72.94
2019-01-27T02:41:12.459Z,72.24
2019-01-27T02:43:42.408Z,72.70
2019-01-27T02:46:12.338Z,72.56
2019-01-27T02:48:42.717Z,71.79
2019-01-27T02:51:12.602Z,72.63
2019-01-27T02:53:42.960Z,72.15
2019-01-27T02:56:12.980Z,71.97
2019-01-27T02:58:42.965Z,72.33
2019-01-27T03:01:13.320Z,72.61
2019-01-27T03:03:43.441Z,72.93
2019-01-27T03:06:36.987Z,73.44
2019-01-27T03:09:13.738Z,72.61
2019-01-27T03:11:52.402Z,72.30
2019-01-27T03:14:23.017Z,72.94
2019-01-27T03:16:54.282Z,71.71
2019-01-27T03:19:24.543Z,72.08
2019-01-27T03:21:54.860Z,72.30
2019-01-27T03:24:24.839Z,71.66
2019-01-27T03:26:55.388Z,71.74
2019-01-27T03:29:25.496Z,71.22
2019-01-27T03:31:55.944Z,71.48
2019-01-27T03:34:26.022Z,71.27
2019-01-27T03:36:56.328Z,71.45
2019-01-27T03:39:26.217Z,71.66
2019-01-27T03:41:56.381Z,72.31
2019-01-27T03:44:26.437Z,72.06
2019-01-27T03:46:56.374Z,71.70
2019-01-27T03:49:26.475Z,70.93
2019-01-27T03:51:56.768Z,71.21
2019-01-27T03:54:26.692Z,70.91
2019-01-27T03:56:56.582Z,70.97
2019-01-27T03:59:26.486Z,70.24
2019-01-27T04:01:56.397Z,70.97
2019-01-27T04:04:26.500Z,71.35
2019-01-27T04:06:56.468Z,70.59
2019-01-27T04:09:26.442Z,71.02
2019-01-27T04:11:56.347Z,71.09
2019-01-27T04:14:26.520Z,70.82
2019-01-27T04:16:56.886Z,71.25
2019-01-27T04:19:26.987Z,70.73
2019-01-27T04:21:57.187Z,70.79
2019-01-27T04:24:27.553Z,70.70
2019-01-27T04:26:57.464Z,71.03
2019-01-27T04:29:27.339Z,72.59
2019-01-27T04:31:57.359Z,71.03
2019-01-27T04:34:27.398Z,71.21
2019-01-27T04:36:57.282Z,70.62
2019-01-27T04:39:27.194Z,70.84
2019-01-27T04:41:57.097Z,70.74
2019-01-27T04:44:27.228Z,71.23
2019-01-27T04:46:57.161Z,71.58
2019-01-27T04:49:27.034Z,71.03
2019-01-27T04:51:57.263Z,70.82
2019-01-27T04:54:27.232Z,70.95
2019-01-27T04:56:57.201Z,70.84
2019-01-27T04:59:27.107Z,70.75
2019-01-27T05:01:57.053Z,71.20
2019-01-27T05:04:33.520Z,70.44
2019-01-27T05:07:03.529Z,70.69
2019-01-27T05:09:33.627Z,70.41
2019-01-27T05:12:03.988Z,70.74
2019-01-27T05:14:33.888Z,70.89
2019-01-27T05:17:04.179Z,71.37
2019-01-27T05:19:34.050Z,70.95
2019-01-27T05:22:04.082Z,70.48
2019-01-27T05:24:33.964Z,70.34
2019-01-27T05:27:03.963Z,70.89
2019-01-27T05:29:33.826Z,70.86
2019-01-27T05:32:04.163Z,70.86
2019-01-27T05:34:34.052Z,71.15
2019-01-27T05:37:03.978Z,71.25
2019-01-27T05:39:34.075Z,70.87
2019-01-27T05:42:04.380Z,70.30
2019-01-27T05:44:34.261Z,70.56
2019-01-27T05:47:04.159Z,70.53
2019-01-27T05:49:34.056Z,70.49
2019-01-27T05:52:04.416Z,70.33
2019-01-27T05:54:34.293Z,70.58
2019-01-27T05:57:04.184Z,70.39
2019-01-27T05:59:34.402Z,70.29
2019-01-27T06:02:04.703Z,70.62
2019-01-27T06:04:34.597Z,70.41
2019-01-27T06:07:04.669Z,70.32
2019-01-27T06:09:34.573Z,70.45
2019-01-27T06:12:04.661Z,70.31
2019-01-27T06:14:34.569Z,70.77
2019-01-27T06:17:04.795Z,70.71
2019-01-27T06:19:34.683Z,70.51
2019-01-27T06:22:04.747Z,70.71
2019-01-27T06:24:34.623Z,70.69
2019-01-27T06:27:04.787Z,70.84
2019-01-27T06:29:34.711Z,70.80
2019-01-27T06:32:04.686Z,70.67
2019-01-27T06:34:34.563Z,71.79
2019-01-27T06:37:04.490Z,71.35
2019-01-27T06:39:34.470Z,70.66
2019-01-27T06:42:04.420Z,71.12
2019-01-27T06:44:34.313Z,70.52
2019-01-27T06:47:04.527Z,70.33
2019-01-27T06:49:34.630Z,70.19
2019-01-27T06:52:04.668Z,70.68
2019-01-27T06:54:35.090Z,70.63
2019-01-27T06:57:05.490Z,70.07
2019-01-27T06:59:49.265Z,70.48
2019-01-27T07:02:29.554Z,70.54
2019-01-27T07:05:05.643Z,70.03
2019-01-27T07:07:53.234Z,70.39
2019-01-27T07:10:41.164Z,70.73
2019-01-27T07:13:28.416Z,70.42
2019-01-27T07:16:17.565Z,70.39
2019-01-27T07:19:04.225Z,70.41
2019-01-27T07:21:41.598Z,71.85
2019-01-27T07:24:25.146Z,70.62
2019-01-27T07:27:05.756Z,70.07
2019-01-27T07:29:57.691Z,70.58
2019-01-27T07:32:44.568Z,70.40
2019-01-27T07:35:29.399Z,69.92
2019-01-27T07:38:06.916Z,70.52
2019-01-27T07:40:43.508Z,70.11
2019-01-27T07:43:28.969Z,69.75
2019-01-27T07:46:20.810Z,69.76
2019-01-27T07:49:02.798Z,69.92
2019-01-27T07:52:06.763Z,69.35
2019-01-27T07:54:58.704Z,70.04
2019-01-27T07:57:50.703Z,69.53
2019-01-27T08:00:41.051Z,69.39
2019-01-27T08:03:48.183Z,69.51
2019-01-27T08:06:43.688Z,69.66
2019-01-27T08:09:31.811Z,70.43
2019-01-27T08:12:15.639Z,70.65
2019-01-27T08:14:56.382Z,71.42
2019-01-27T08:17:39.881Z,70.85
2019-01-27T08:20:23.917Z,70.61
2019-01-27T08:23:01.210Z,70.49
2019-01-27T08:25:59.678Z,70.44
2019-01-27T08:28:55.313Z,71.14
2019-01-27T08:31:44.090Z,70.71
2019-01-27T08:34:36.343Z,70.49
2019-01-27T08:37:14.776Z,69.59
2019-01-27T08:39:52.527Z,70.16
2019-01-27T08:42:35.655Z,70.14
2019-01-27T08:45:28.672Z,69.77
2019-01-27T08:48:01.313Z,69.96
2019-01-27T08:50:30.470Z,69.89
2019-01-27T08:53:00.465Z,69.96
2019-01-27T08:55:30.358Z,69.82
2019-01-27T08:58:03.307Z,70.00
2019-01-27T09:00:38.005Z,69.35
2019-01-27T09:03:13.645Z,70.06
2019-01-27T09:05:51.672Z,71.36
2019-01-27T09:08:26.327Z,69.53
2019-01-27T09:11:14.084Z,69.36
2019-01-27T09:13:59.421Z,68.88
2019-01-27T09:16:49.567Z,69.44
2019-01-27T09:19:28.591Z,70.18
2019-01-27T09:22:10.307Z,69.10
2019-01-27T09:24:58.121Z,68.87
2019-01-27T09:27:33.341Z,68.74
2019-01-27T09:30:25.198Z,68.72
2019-01-27T09:33:03.477Z,68.45
2019-01-27T09:35:54.346Z,68.74
2019-01-27T09:38:42.009Z,68.61
2019-01-27T09:41:18.542Z,68.54
2019-01-27T09:44:13.157Z,68.58
2019-01-27T09:47:07.381Z,68.47
2019-01-27T09:50:11.367Z,71.00
2019-01-27T09:53:04.261Z,68.29
2019-01-27T09:55:53.247Z,69.68
2019-01-27T09:58:30.716Z,68.06
2019-01-27T10:01:09.866Z,67.84
2019-01-27T10:03:59.274Z,67.98
2019-01-27T10:06:39.616Z,67.99
2019-01-27T10:09:30.542Z,67.91
2019-01-27T10:12:09.579Z,67.95
2019-01-27T10:14:46.174Z,67.54
2019-01-27T10:17:30.152Z,66.94
2019-01-27T10:20:17.733Z,66.71
2019-01-27T10:23:10.351Z,66.84
2019-01-27T10:25:50.225Z,66.93
2019-01-27T10:28:28.025Z,66.99
2019-01-27T10:31:07.255Z,66.65
2019-01-27T10:33:51.068Z,65.89
2019-01-27T10:36:29.723Z,65.54
2019-01-27T10:39:08.308Z,65.62
2019-01-27T10:41:46.469Z,65.86
2019-01-27T10:44:33.155Z,66.42
2019-01-27T10:47:09.566Z,66.43
2019-01-27T10:49:48.077Z,66.19
2019-01-27T10:52:37.500Z,66.91
2019-01-27T10:55:15.334Z,67.31
2019-01-27T10:57:56.449Z,66.89
2019-01-27T11:00:48.928Z,67.08
2019-01-27T11:03:31.822Z,67.60
2019-01-27T11:06:23.956Z,68.04
2019-01-27T11:09:16.435Z,68.72
2019-01-27T11:12:09.216Z,68.18
2019-01-27T11:15:04.472Z,68.42
2019-01-27T11:17:51.868Z,67.81
2019-01-27T11:20:50.235Z,68.25
2019-01-27T11:23:30.412Z,69.35
2019-01-27T11:26:18.144Z,68.73
2019-01-27T11:29:05.965Z,68.37
2019-01-27T11:31:56.791Z,68.60
2019-01-27T11:34:44.491Z,68.83
2019-01-27T11:37:29.872Z,68.50
2019-01-27T11:40:10.156Z,69.49
2019-01-27T11:42:57.344Z,69.23
2019-01-27T11:45:39.864Z,70.27
2019-01-27T11:48:14.369Z,69.80
2019-01-27T11:50:48.911Z,69.54
2019-01-27T11:53:19.079Z,69.37
2019-01-27T11:55:49.075Z,68.91
2019-01-27T11:58:19.104Z,69.05
2019-01-27T12:00:53.178Z,69.23
2019-01-27T12:03:23.427Z,69.29
2019-01-27T12:05:53.800Z,69.30
2019-01-27T12:08:23.755Z,70.82
2019-01-27T12:10:53.857Z,69.75
2019-01-27T12:13:24.864Z,70.35
2019-01-27T12:15:54.754Z,70.09
2019-01-27T12:18:24.953Z,69.39
2019-01-27T12:20:55.076Z,70.76
2019-01-27T12:23:25.092Z,71.19
2019-01-27T12:25:55.140Z,69.94
2019-01-27T12:28:25.530Z,69.66
2019-01-27T12:30:55.677Z,70.33
2019-01-27T12:33:25.547Z,70.60
2019-01-27T12:35:56.291Z,70.32
2019-01-27T12:38:26.399Z,70.87
2019-01-27T12:40:56.581Z,70.47
2019-01-27T12:43:27.089Z,70.96
2019-01-27T12:45:57.039Z,70.96
2019-01-27T12:48:28.671Z,70.06
2019-01-27T12:51:08.263Z,69.80
2019-01-27T12:53:38.175Z,70.23
2019-01-27T12:56:08.264Z,70.30
2019-01-27T12:58:38.160Z,69.83
2019-01-27T13:01:13.466Z,70.19
2019-01-27T13:03:43.416Z,70.05
2019-01-27T13:06:13.453Z,70.50
2019-01-27T13:08:43.476Z,70.49
2019-01-27T13:11:13.652Z,70.17
2019-01-27T13:13:43.787Z,70.37
2019-01-27T13:16:13.742Z,69.79
2019-01-27T13:18:43.646Z,69.59
2019-01-27T13:21:13.512Z,69.18
2019-01-27T13:23:43.489Z,69.11
2019-01-27T13:26:13.430Z,69.99
2019-01-27T13:28:43.739Z,69.48
2019-01-27T13:31:13.646Z,69.29
2019-01-27T13:33:43.825Z,69.69
2019-01-27T13:36:13.770Z,69.90
2019-01-27T13:38:50.822Z,69.66
2019-01-27T13:41:16.052Z,69.70
2019-01-27T13:43:45.925Z,69.81
2019-01-27T13:46:16.029Z,69.12
2019-01-27T13:48:45.903Z,69.07
2019-01-27T13:51:16.143Z,68.83
2019-01-27T13:53:46.253Z,68.86
2019-01-27T13:56:16.161Z,68.94
2019-01-27T13:58:46.170Z,68.99
2019-01-27T14:01:16.729Z,68.87
2019-01-27T14:03:46.923Z,69.28
2019-01-27T14:06:17.048Z,69.77
2019-01-27T14:08:47.007Z,68.80
2019-01-27T14:11:17.033Z,68.31
2019-01-27T14:13:46.926Z,68.24
2019-01-27T14:16:16.983Z,68.07
2019-01-27T14:18:47.004Z,67.85
2019-01-27T14:21:16.912Z,67.93
2019-01-27T14:23:47.344Z,67.96
2019-01-27T14:26:17.234Z,67.97
2019-01-27T14:28:47.527Z,67.72
2019-01-27T14:31:17.483Z,67.41
2019-01-27T14:33:47.687Z,68.33
2019-01-27T14:36:17.631Z,68.82
2019-01-27T14:38:47.662Z,67.71
2019-01-27T14:41:17.678Z,67.64
2019-01-27T14:43:47.830Z,67.44
2019-01-27T14:46:17.697Z,67.24
2019-01-27T14:48:47.582Z,67.22
2019-01-27T14:51:17.793Z,67.00
2019-01-27T14:53:48.027Z,68.43
2019-01-27T14:56:18.044Z,66.83
2019-01-27T14:58:48.009Z,66.45
2019-01-27T15:01:18.184Z,66.95
2019-01-27T15:03:48.117Z,66.66
2019-01-27T15:06:18.029Z,66.37
2019-01-27T15:08:48.340Z,66.84
2019-01-27T15:11:18.332Z,66.52
2019-01-27T15:13:48.537Z,66.48
2019-01-27T15:16:18.569Z,66.46
2019-01-27T15:18:48.490Z,66.56
2019-01-27T15:21:23.950Z,66.58
2019-01-27T15:23:54.138Z,66.43
2019-01-27T15:26:24.067Z,66.93
2019-01-27T15:28:54.154Z,66.55
2019-01-27T15:31:24.045Z,66.97
2019-01-27T15:33:53.923Z,67.45
2019-01-27T15:36:23.937Z,66.59
2019-01-27T15:38:53.835Z,66.26
2019-01-27T15:41:23.735Z,65.89
2019-01-27T15:43:53.640Z,66.26
2019-01-27T15:46:23.597Z,66.20
2019-01-27T15:48:53.907Z,66.41
2019-01-27T15:51:24.011Z,66.35
2019-01-27T15:53:53.896Z,66.51
2019-01-27T15:56:23.804Z,66.16
2019-01-27T15:58:53.676Z,65.87
2019-01-27T16:01:23.929Z,66.21
2019-01-27T16:03:53.804Z,66.31
2019-01-27T16:06:23.727Z,66.18
2019-01-27T16:08:53.837Z,66.39
2019-01-27T16:11:24.038Z,66.87
2019-01-27T16:13:54.059Z,66.67
2019-01-27T16:16:23.953Z,66.51
2019-01-27T16:18:58.874Z,66.13
2019-01-27T16:21:25.490Z,66.97
2019-01-27T16:23:57.940Z,66.20
2019-01-27T16:26:27.915Z,66.15
2019-01-27T16:28:58.132Z,66.28
2019-01-27T16:31:43.866Z,65.87
2019-01-27T16:34:18.868Z,65.84
2019-01-27T16:36:48.751Z,66.19
2019-01-27T16:39:18.742Z,66.76
2019-01-27T16:41:48.716Z,66.47
2019-01-27T16:44:18.703Z,66.49
2019-01-27T16:46:48.630Z,66.81
2019-01-27T16:49:19.492Z,66.87
2019-01-27T16:51:50.016Z,66.91
2019-01-27T16:54:20.639Z,66.54
2019-01-27T16:56:50.534Z,66.37
2019-01-27T16:59:20.744Z,67.00
2019-01-27T17:01:50.663Z,67.17
2019-01-27T17:04:20.563Z,67.42
2019-01-27T17:06:51.111Z,67.61
2019-01-27T17:09:21.235Z,67.65
2019-01-27T17:11:51.805Z,69.17
2019-01-27T17:14:21.746Z,68.02
2019-01-27T17:16:51.740Z,68.67
2019-01-27T17:19:22.868Z,67.92
2019-01-27T17:21:53.048Z,67.93
2019-01-27T17:24:23.918Z,67.70
2019-01-27T17:26:54.292Z,67.11
2019-01-27T17:29:24.236Z,67.36
2019-01-27T17:31:54.159Z,67.42
2019-01-27T17:34:24.123Z,67.78
2019-01-27T17:36:54.025Z,67.31
2019-01-27T17:39:23.955Z,67.51
2019-01-27T17:41:53.846Z,67.58
2019-01-27T17:44:23.941Z,67.58
2019-01-27T17:46:55.032Z,67.63
2019-01-27T17:49:24.939Z,67.56
2019-01-27T17:51:55.217Z,67.76
2019-01-27T17:54:26.324Z,67.60
2019-01-27T17:57:03.360Z,67.23
2019-01-27T17:59:38.633Z,67.41
2019-01-27T18:02:25.694Z,67.04
2019-01-27T18:05:04.778Z,67.10
2019-01-27T18:07:54.821Z,67.03
2019-01-27T18:10:35.972Z,67.56
2019-01-27T18:13:10.672Z,67.18
2019-01-27T18:15:40.755Z,67.05
2019-01-27T18:18:10.848Z,67.03
2019-01-27T18:20:41.096Z,66.84
2019-01-27T18:23:11.063Z,66.98
2019-01-27T18:25:40.987Z,67.04
2019-01-27T18:28:10.958Z,67.66
2019-01-27T18:30:41.026Z,67.20
2019-01-27T18:33:10.975Z,67.29
2019-01-27T18:35:40.897Z,67.60
2019-01-27T18:38:11.438Z,67.13
2019-01-27T18:40:41.380Z,67.08
2019-01-27T18:43:11.456Z,66.79
2019-01-27T18:45:42.028Z,66.81
2019-01-27T18:48:11.893Z,67.16
2019-01-27T18:50:41.842Z,67.23
2019-01-27T18:53:31.454Z,66.94
2019-01-27T18:56:13.221Z,66.82
2019-01-27T18:59:01.658Z,66.38
2019-01-27T19:01:57.510Z,66.26
2019-01-27T19:04:52.299Z,66.62
2019-01-27T19:07:28.884Z,66.52
2019-01-27T19:10:20.758Z,66.52
2019-01-27T19:13:22.025Z,66.00
2019-01-27T19:16:03.546Z,66.44
2019-01-27T19:18:51.117Z,65.93
2019-01-27T19:21:54.659Z,66.51
2019-01-27T19:24:58.074Z,66.92
2019-01-27T19:27:47.022Z,66.01
2019-01-27T19:30:29.824Z,65.35
2019-01-27T19:33:27.929Z,65.55
2019-01-27T19:36:11.595Z,65.54
2019-01-27T19:39:13.625Z,66.25
2019-01-27T19:41:52.825Z,66.01
2019-01-27T19:44:39.421Z,65.70
2019-01-27T19:47:31.941Z,65.93
2019-01-27T19:50:13.443Z,65.85
2019-01-27T19:53:08.443Z,66.22
2019-01-27T19:55:56.646Z,66.81
2019-01-27T19:58:48.677Z,67.14
2019-01-27T20:01:25.831Z,67.23
2019-01-27T20:04:18.101Z,67.33
2019-01-27T20:06:56.818Z,67.48
2019-01-27T20:09:34.414Z,67.79
2019-01-27T20:12:22.965Z,68.38
2019-01-27T20:15:13.366Z,67.46
2019-01-27T20:18:00.472Z,67.16
2019-01-27T20:20:50.374Z,67.33
2019-01-27T20:23:32.549Z,67.27
2019-01-27T20:26:22.023Z,66.99
2019-01-27T20:29:13.925Z,67.33
2019-01-27T20:31:59.735Z,67.07
2019-01-27T20:34:54.709Z,67.00
2019-01-27T20:37:37.288Z,66.61
2019-01-27T20:40:31.929Z,66.64
2019-01-27T20:43:13.503Z,66.44
2019-01-27T20:45:52.035Z,66.68
2019-01-27T20:49:00.562Z,66.35
2019-01-27T20:51:36.779Z,66.67
2019-01-27T20:54:18.129Z,66.62
2019-01-27T20:57:05.888Z,66.60
2019-01-27T21:00:01.719Z,66.26
2019-01-27T21:02:51.233Z,66.23
2019-01-27T21:05:46.835Z,66.16
2019-01-27T21:08:30.372Z,66.73
2019-01-27T21:11:26.060Z,66.43
2019-01-27T21:14:14.946Z,66.73
2019-01-27T21:16:56.417Z,67.28
2019-01-27T21:19:51.181Z,67.48
2019-01-27T21:22:23.946Z,67.53
2019-01-27T21:24:55.190Z,67.73
2019-01-27T21:27:26.069Z,67.19
2019-01-27T21:29:56.621Z,67.00
2019-01-27T21:32:27.519Z,67.29
2019-01-27T21:34:58.318Z,67.02
2019-01-27T21:37:28.856Z,67.34
2019-01-27T21:39:59.487Z,67.07
2019-01-27T21:42:30.339Z,66.77
2019-01-27T21:45:01.195Z,66.85
2019-01-27T21:47:31.506Z,67.26
2019-01-27T21:50:01.784Z,67.53
2019-01-27T21:52:32.750Z,67.61
2019-01-27T21:55:03.555Z,69.59
2019-01-27T21:57:33.458Z,68.24
2019-01-27T22:00:03.710Z,68.21
2019-01-27T22:02:34.974Z,68.45
2019-01-27T22:05:07.030Z,68.21
2019-01-27T22:07:38.443Z,68.27
2019-01-27T22:10:11.673Z,68.41
2019-01-27T22:12:43.573Z,68.13
2019-01-27T22:15:14.149Z,68.88
2019-01-27T22:17:45.995Z,68.78
2019-01-27T22:20:18.931Z,69.27
2019-01-27T22:22:49.903Z,68.82
2019-01-27T22:25:21.289Z,69.31
2019-01-27T22:27:52.667Z,69.29
2019-01-27T22:30:22.975Z,69.14
2019-01-27T22:32:55.303Z,69.00
2019-01-27T22:35:26.287Z,68.95
2019-01-27T22:38:00.719Z,69.15
2019-01-27T22:40:31.608Z,69.08
2019-01-27T22:43:01.651Z,69.46
2019-01-27T22:45:31.867Z,69.46
2019-01-27T22:48:02.924Z,69.89
2019-01-27T22:50:33.249Z,69.74
2019-01-27T22:53:04.398Z,69.45
2019-01-27T22:55:34.410Z,69.38
2019-01-27T22:58:06.204Z,69.24
2019-01-27T23:01:01.527Z,68.73
2019-01-27T23:03:44.135Z,68.58
2019-01-27T23:06:14.364Z,68.78
2019-01-27T23:08:44.869Z,68.75
2019-01-27T23:11:15.190Z,68.72
2019-01-27T23:13:45.481Z,68.31
2019-01-27T23:16:15.771Z,68.20
2019-01-27T23:18:46.555Z,68.32
2019-01-27T23:21:16.920Z,68.65
2019-01-27T23:23:46.821Z,68.75
2019-01-27T23:26:16.715Z,68.67
2019-01-27T23:28:46.911Z,68.58
2019-01-27T23:31:17.080Z,68.59
2019-01-27T23:33:47.034Z,68.74
2019-01-27T23:36:17.086Z,68.42
2019-01-27T23:38:46.983Z,68.65
2019-01-27T23:41:16.906Z,68.33
2019-01-27T23:43:46.777Z,68.69
2019-01-27T23:46:16.665Z,68.29
2019-01-27T23:48:46.595Z,68.65
2019-01-27T23:51:16.551Z,68.94
2019-01-27T23:53:46.473Z,68.57
2019-01-27T23:56:16.731Z,69.02
2019-01-27T23:58:46.954Z,68.94
